Time;durP1;ratioP1;P1;durP2;ratioP2;P2;SDS_P1;SDS_P2;PMS_P1;PMS_P2;Temp;Humidity;BMP_temperature;BMP_pressure;BME280_temperature;BME280_humidity;BME280_pressure;Samples;Min_cycle;Max_cycle;Signal;HPM_P1;HPM_P2
2023/04/26 00:02:10;;;;;;;1.40;0.85;;;4.20;74.90;;;;;;5090525;28;20104;-55
2023/04/26 00:04:36;;;;;;;4.50;1.00;;;4.20;75.90;;;;;;5070534;28;20013;-54
2023/04/26 00:07:02;;;;;;;2.60;0.88;;;4.20;75.90;;;;;;5082641;28;20040;-52
2023/04/26 00:09:28;;;;;;;4.20;0.98;;;4.20;74.80;;;;;;5068580;28;20562;-53
2023/04/26 00:11:53;;;;;;;5.40;1.63;;;4.20;78.60;;;;;;5089479;28;20036;-55
2023/04/26 00:14:19;;;;;;;6.90;1.02;;;4.10;82.90;;;;;;5068374;28;20109;-54
2023/04/26 00:16:44;;;;;;;4.85;1.50;;;4.10;80.40;;;;;;5089084;28;20028;-54
2023/04/26 00:19:10;;;;;;;5.50;1.00;;;4.10;79.70;;;;;;5068372;28;20029;-54
2023/04/26 00:21:36;;;;;;;3.78;1.02;;;4.10;80.50;;;;;;5089250;28;20020;-55
2023/04/26 00:24:02;;;;;;;3.85;0.93;;;4.10;81.90;;;;;;5079023;28;20027;-55
2023/04/26 00:26:28;;;;;;;9.00;1.92;;;4.10;84.10;;;;;;5089559;28;20032;-55
2023/04/26 00:28:54;;;;;;;8.18;1.42;;;4.10;80.60;;;;;;5077653;28;20519;-54
2023/04/26 00:31:19;;;;;;;1.83;0.80;;;4.00;82.00;;;;;;5089330;28;20032;-56
2023/04/26 00:33:45;;;;;;;7.65;1.33;;;4.00;85.90;;;;;;5075824;28;20059;-54
2023/04/26 00:36:11;;;;;;;7.90;1.02;;;4.00;84.60;;;;;;5076682;28;20043;-55
2023/04/26 00:38:37;;;;;;;1.92;0.73;;;4.00;83.30;;;;;;5069270;28;20119;-56
2023/04/26 00:41:02;;;;;;;3.50;1.10;;;4.00;82.50;;;;;;5086313;28;20103;-52
2023/04/26 00:43:28;;;;;;;6.22;1.70;;;4.00;88.10;;;;;;5069749;28;20515;-53
2023/04/26 00:45:53;;;;;;;3.67;1.10;;;3.90;87.70;;;;;;5085851;28;20051;-51
2023/04/26 00:48:19;;;;;;;5.80;1.20;;;3.90;86.10;;;;;;5088180;28;20028;-55
2023/04/26 00:50:46;;;;;;;2.72;0.88;;;3.90;86.10;;;;;;5072930;28;20503;-54
2023/04/26 00:53:13;;;;;;;5.93;1.08;;;3.90;83.80;;;;;;5089334;28;20379;-54
2023/04/26 00:55:40;;;;;;;10.82;1.27;;;3.90;84.60;;;;;;5072073;28;20438;-56
2023/04/26 00:58:05;;;;;;;2.47;1.00;;;3.90;85.60;;;;;;5089345;28;20540;-54
2023/04/26 01:00:31;;;;;;;7.43;1.45;;;3.80;86.20;;;;;;5070911;28;20090;-54
2023/04/26 01:02:57;;;;;;;8.35;1.70;;;3.80;90.40;;;;;;5089175;28;20023;-53
2023/04/26 01:05:23;;;;;;;2.20;0.93;;;3.80;89.80;;;;;;5067731;28;20035;-55
2023/04/26 01:07:49;;;;;;;7.18;1.20;;;3.80;90.30;;;;;;5089252;28;20480;-54
2023/04/26 01:10:16;;;;;;;8.70;1.15;;;3.80;90.90;;;;;;5086935;28;20099;-55
2023/04/26 01:12:41;;;;;;;5.20;0.88;;;3.80;89.90;;;;;;5089270;28;20428;-56
2023/04/26 01:15:08;;;;;;;7.57;1.33;;;3.70;90.80;;;;;;5067203;28;20036;-56
2023/04/26 01:17:33;;;;;;;4.78;1.20;;;3.70;91.30;;;;;;5088760;28;20028;-56
2023/04/26 01:19:59;;;;;;;7.15;1.40;;;3.70;91.60;;;;;;5069048;28;20028;-55
2023/04/26 01:22:25;;;;;;;6.22;1.10;;;3.70;90.60;;;;;;5086354;28;20024;-54
2023/04/26 01:24:53;;;;;;;3.90;1.10;;;3.60;89.10;;;;;;5088604;28;20396;-56
2023/04/26 01:27:19;;;;;;;6.20;1.10;;;3.60;91.00;;;;;;5066777;28;20059;-54
2023/04/26 01:29:45;;;;;;;4.57;1.15;;;3.60;91.30;;;;;;5087776;28;20476;-52
2023/04/26 01:32:10;;;;;;;4.88;1.20;;;3.60;93.70;;;;;;5067272;28;20119;-55
2023/04/26 01:34:36;;;;;;;8.88;1.10;;;3.60;91.90;;;;;;5087821;28;20089;-54
2023/04/26 01:37:01;;;;;;;11.13;2.17;;;3.50;91.80;;;;;;5067235;28;20040;-51
2023/04/26 01:39:27;;;;;;;1.83;0.80;;;3.50;90.70;;;;;;5087874;28;20054;-54
2023/04/26 01:41:53;;;;;;;4.07;1.42;;;3.50;91.20;;;;;;5067217;28;20040;-54
2023/04/26 01:44:18;;;;;;;7.03;1.60;;;3.50;93.60;;;;;;5087936;28;20435;-55
2023/04/26 01:46:44;;;;;;;1.70;1.00;;;3.50;93.90;;;;;;5067063;28;20356;-53
2023/04/26 01:49:09;;;;;;;6.30;1.10;;;3.50;93.30;;;;;;5087759;28;20036;-55
2023/04/26 01:51:35;;;;;;;4.90;1.27;;;3.40;93.90;;;;;;5066963;28;20037;-54
2023/04/26 01:54:01;;;;;;;8.23;1.40;;;3.40;94.20;;;;;;5087730;28;20024;-55
2023/04/26 01:56:27;;;;;;;5.18;1.27;;;3.40;94.90;;;;;;5066913;28;20025;-55
2023/04/26 01:58:54;;;;;;;3.90;1.10;;;3.40;94.70;;;;;;5087577;28;20499;-55
2023/04/26 02:01:20;;;;;;;4.57;0.95;;;3.30;94.50;;;;;;5078972;28;20035;-57
2023/04/26 02:03:45;;;;;;;4.80;1.25;;;3.30;94.60;;;;;;5072530;28;20054;-57
2023/04/26 02:06:11;;;;;;;5.07;1.20;;;3.30;94.50;;;;;;5086048;28;20043;-55
2023/04/26 02:08:36;;;;;;;6.20;1.05;;;3.30;96.70;;;;;;5075835;28;20036;-55
2023/04/26 02:11:02;;;;;;;7.13;1.23;;;3.30;97.40;;;;;;5072125;28;20033;-53
2023/04/26 02:13:28;;;;;;;5.97;1.20;;;3.20;97.40;;;;;;5091509;28;20032;-56
2023/04/26 02:15:53;;;;;;;5.00;1.40;;;3.30;96.00;;;;;;5070505;28;20500;-53
2023/04/26 02:18:20;;;;;;;5.15;0.88;;;3.20;95.00;;;;;;5091568;28;20043;-56
2023/04/26 02:20:46;;;;;;;5.72;1.58;;;3.20;96.20;;;;;;5070378;28;20020;-54
2023/04/26 02:23:12;;;;;;;3.13;1.05;;;3.20;97.60;;;;;;5091551;28;20036;-55
2023/04/26 02:25:38;;;;;;;3.47;1.08;;;3.20;99.10;;;;;;5070496;28;20086;-56
2023/04/26 02:28:04;;;;;;;5.15;1.02;;;3.20;98.10;;;;;;5091513;28;20040;-55
2023/04/26 02:30:30;;;;;;;7.25;0.85;;;3.20;98.50;;;;;;5070276;28;20549;-53
2023/04/26 02:32:56;;;;;;;4.53;0.90;;;3.20;98.40;;;;;;5091092;28;20028;-56
2023/04/26 02:35:22;;;;;;;2.90;0.95;;;3.10;96.70;;;;;;5070045;28;20401;-54
2023/04/26 02:37:48;;;;;;;5.28;1.02;;;3.10;95.60;;;;;;5091192;28;20051;-56
2023/04/26 02:40:14;;;;;;;5.32;1.10;;;3.10;96.20;;;;;;5070226;28;20059;-55
2023/04/26 02:42:40;;;;;;;3.83;0.75;;;3.00;96.10;;;;;;5091099;28;20032;-55
2023/04/26 02:45:06;;;;;;;2.00;0.93;;;3.00;95.70;;;;;;5070089;28;20269;-55
2023/04/26 02:47:32;;;;;;;7.18;1.35;;;2.90;96.00;;;;;;5090963;28;20373;-53
2023/04/26 02:49:57;;;;;;;2.95;0.70;;;2.90;96.90;;;;;;5070105;28;20031;-56
2023/04/26 02:52:23;;;;;;;3.88;0.88;;;2.90;96.50;;;;;;5090731;28;20034;-56
2023/04/26 02:54:48;;;;;;;6.97;1.27;;;2.90;97.10;;;;;;5080075;28;20036;-56
2023/04/26 02:57:14;;;;;;;5.45;0.98;;;2.90;99.90;;;;;;5071767;28;20020;-54
2023/04/26 02:59:40;;;;;;;7.57;1.10;;;2.90;99.90;;;;;;5088739;28;20032;-55
2023/04/26 03:02:06;;;;;;;4.80;0.98;;;2.80;98.50;;;;;;5071657;28;20036;-55
2023/04/26 03:04:35;;;;;;;1.95;0.60;;;2.80;99.30;;;;;;5088745;28;20248;-53
2023/04/26 03:07:03;;;;;;;3.75;0.90;;;2.80;98.30;;;;;;5067664;28;20029;-53
2023/04/26 03:09:29;;;;;;;4.57;1.20;;;2.70;96.20;;;;;;5088708;28;20496;-55
2023/04/26 03:11:55;;;;;;;3.10;1.30;;;2.70;97.30;;;;;;5090646;28;20488;-56
2023/04/26 03:14:21;;;;;;;2.05;0.80;;;2.70;97.80;;;;;;5069636;28;20046;-55
2023/04/26 03:16:47;;;;;;;8.32;1.80;;;2.70;99.90;;;;;;5090572;28;20030;-53
2023/04/26 03:19:13;;;;;;;4.75;1.60;;;2.70;99.90;;;;;;5068565;28;20444;-54
2023/04/26 03:21:38;;;;;;;5.03;1.48;;;2.70;99.90;;;;;;5090489;28;20093;-51
2023/04/26 03:24:04;;;;;;;7.30;1.33;;;2.70;99.90;;;;;;5080573;28;20028;-55
2023/04/26 03:26:29;;;;;;;8.57;1.88;;;2.60;99.90;;;;;;5090975;28;20051;-53
2023/04/26 03:28:55;;;;;;;4.97;1.65;;;2.60;99.90;;;;;;5077819;28;20040;-55
2023/04/26 03:31:21;;;;;;;4.25;1.30;;;2.60;98.00;;;;;;5090744;28;20113;-54
2023/04/26 03:33:47;;;;;;;3.22;0.98;;;2.60;99.90;;;;;;5077547;28;20044;-54
2023/04/26 03:36:12;;;;;;;8.27;1.20;;;2.60;99.90;;;;;;5090585;28;20031;-52
2023/04/26 03:38:38;;;;;;;3.67;2.15;;;2.60;99.90;;;;;;5076516;28;20392;-54
2023/04/26 03:41:03;;;;;;;5.32;1.10;;;2.60;99.90;;;;;;5090782;28;20024;-56
2023/04/26 03:43:29;;;;;;;7.78;1.20;;;2.50;99.90;;;;;;5082430;28;20401;-55
2023/04/26 03:45:54;;;;;;;5.82;1.60;;;2.50;99.90;;;;;;5068293;28;20117;-55
2023/04/26 03:48:20;;;;;;;5.68;1.58;;;2.60;99.90;;;;;;5082314;28;20040;-56
2023/04/26 03:50:45;;;;;;;7.53;1.25;;;2.60;99.90;;;;;;5088336;28;20038;-51
2023/04/26 03:53:11;;;;;;;4.95;1.30;;;2.60;99.90;;;;;;5090532;28;20020;-55
2023/04/26 03:55:37;;;;;;;3.15;1.35;;;2.60;99.90;;;;;;5069221;28;20031;-56
2023/04/26 03:58:06;;;;;;;3.97;1.00;;;2.60;99.90;;;;;;5089924;28;20023;-55
2023/04/26 04:00:42;;;;;;;7.43;1.30;;;2.60;99.90;;;;;;5068314;28;20033;-54
2023/04/26 04:03:07;;;;;;;4.07;1.10;;;2.70;99.90;;;;;;5050237;28;20453;-54
2023/04/26 04:05:33;;;;;;;5.80;1.48;;;2.70;99.90;;;;;;5080054;28;20118;-52
2023/04/26 04:07:58;;;;;;;6.82;2.00;;;2.80;99.90;;;;;;5070500;28;20032;-54
2023/04/26 04:10:24;;;;;;;10.45;1.20;;;2.80;99.90;;;;;;5087927;28;20051;-53
2023/04/26 04:12:50;;;;;;;6.10;1.52;;;2.90;99.90;;;;;;5090062;28;20093;-54
2023/04/26 04:15:17;;;;;;;6.93;1.25;;;2.90;99.90;;;;;;5068186;28;20025;-54
2023/04/26 04:17:43;;;;;;;8.60;1.27;;;3.00;99.90;;;;;;5089219;28;20072;-56
2023/04/26 04:20:09;;;;;;;6.32;1.55;;;3.10;99.90;;;;;;5068808;28;20052;-58
2023/04/26 04:22:35;;;;;;;8.55;1.45;;;3.10;99.90;;;;;;5089189;28;20107;-58
2023/04/26 04:25:00;;;;;;;4.93;1.30;;;3.20;99.90;;;;;;5066754;28;20580;-59
2023/04/26 04:27:26;;;;;;;3.28;1.00;;;3.30;99.90;;;;;;5089020;28;20034;-58
2023/04/26 04:29:55;;;;;;;5.53;1.30;;;3.40;99.90;;;;;;5078707;28;20044;-59
2023/04/26 04:32:22;;;;;;;2.30;1.20;;;3.50;99.90;;;;;;5069843;28;20329;-58
2023/04/26 04:34:47;;;;;;;6.85;1.63;;;4.00;99.90;;;;;;5087357;28;20134;-58
2023/04/26 04:37:13;;;;;;;4.00;1.75;;;4.70;99.80;;;;;;5070125;28;20096;-59
2023/04/26 04:39:38;;;;;;;10.57;1.95;;;5.30;96.00;;;;;;5086923;28;20028;-58
2023/04/26 04:42:04;;;;;;;5.78;1.30;;;6.00;91.50;;;;;;5069819;28;20092;-58
2023/04/26 04:44:30;;;;;;;5.05;1.33;;;6.60;87.30;;;;;;5086809;28;20028;-58
2023/04/26 04:46:55;;;;;;;9.00;1.45;;;7.30;82.10;;;;;;5071263;28;20421;-58
2023/04/26 04:49:23;;;;;;;5.80;1.33;;;8.00;77.50;;;;;;5069064;28;20056;-56
2023/04/26 04:51:49;;;;;;;3.80;1.30;;;8.60;72.10;;;;;;5087121;28;20515;-59
2023/04/26 04:54:16;;;;;;;11.98;1.50;;;9.00;66.40;;;;;;5089005;28;20024;-58
2023/04/26 04:56:42;;;;;;;8.80;1.50;;;9.50;65.50;;;;;;5067779;28;20048;-58
2023/04/26 04:59:08;;;;;;;6.70;1.88;;;10.20;65.30;;;;;;5088598;28;20028;-58
2023/04/26 05:01:35;;;;;;;6.13;1.45;;;10.70;61.70;;;;;;5067663;28;20285;-59
2023/04/26 05:04:00;;;;;;;4.13;1.70;;;11.10;55.40;;;;;;5068966;28;20052;-56
2023/04/26 05:06:27;;;;;;;7.60;1.40;;;11.50;51.40;;;;;;5079376;28;20028;-57
2023/04/26 05:08:53;;;;;;;5.40;1.77;;;12.00;53.00;;;;;;5072781;28;20020;-58
2023/04/26 05:11:19;;;;;;;6.55;1.55;;;12.50;49.60;;;;;;5069105;28;20481;-58
2023/04/26 05:13:45;;;;;;;6.50;1.90;;;13.00;49.20;;;;;;5086237;28;20019;-59
2023/04/26 05:16:11;;;;;;;4.15;1.70;;;13.50;45.60;;;;;;5069001;28;20040;-59
2023/04/26 05:18:36;;;;;;;3.63;1.70;;;14.00;43.00;;;;;;5086248;28;20042;-59
2023/04/26 05:21:02;;;;;;;4.90;1.50;;;14.30;40.50;;;;;;5088644;28;20510;-58
2023/04/26 05:23:27;;;;;;;2.85;1.20;;;14.80;38.70;;;;;;5067134;28;20032;-58
2023/04/26 05:25:53;;;;;;;5.05;1.50;;;15.30;32.90;;;;;;5087831;28;20032;-57
2023/04/26 05:28:18;;;;;;;3.35;1.30;;;15.70;34.50;;;;;;5067269;28;20311;-57
2023/04/26 05:30:45;;;;;;;4.22;1.20;;;16.10;32.50;;;;;;5087861;28;20024;-57
2023/04/26 05:33:10;;;;;;;4.07;1.63;;;16.50;30.40;;;;;;5067054;28;20115;-56
2023/04/26 05:35:36;;;;;;;4.85;1.50;;;16.80;28.50;;;;;;5084769;28;20104;-58
2023/04/26 05:38:01;;;;;;;6.50;1.45;;;17.20;25.90;;;;;;5069436;28;20043;-57
2023/04/26 05:40:27;;;;;;;3.67;1.30;;;17.40;24.20;;;;;;5087364;28;20097;-58
2023/04/26 05:42:52;;;;;;;4.32;1.40;;;17.80;23.10;;;;;;5068662;28;20024;-58
2023/04/26 05:45:18;;;;;;;4.40;1.42;;;18.30;23.20;;;;;;5086820;28;20090;-57
2023/04/26 05:47:43;;;;;;;3.35;1.50;;;18.00;18.70;;;;;;5067341;28;20025;-57
2023/04/26 05:50:09;;;;;;;4.05;1.67;;;18.20;20.00;;;;;;5087716;28;20099;-58
2023/04/26 05:52:35;;;;;;;4.50;1.63;;;18.80;19.40;;;;;;5066266;28;20035;-58
2023/04/26 05:55:04;;;;;;;4.38;1.33;;;19.10;18.40;;;;;;5085455;28;20028;-59
2023/04/26 05:57:30;;;;;;;5.57;1.50;;;19.60;17.00;;;;;;5067233;28;20036;-59
2023/04/26 05:59:55;;;;;;;4.72;1.50;;;19.80;16.50;;;;;;5085630;28;20085;-58
2023/04/26 06:02:21;;;;;;;6.15;1.52;;;19.80;15.90;;;;;;5067452;28;20568;-59
2023/04/26 06:04:46;;;;;;;5.15;1.65;;;19.80;14.90;;;;;;5063795;28;20492;-55
2023/04/26 06:07:12;;;;;;;3.88;1.40;;;19.20;14.60;;;;;;5067271;28;20154;-59
2023/04/26 06:09:37;;;;;;;6.72;1.63;;;18.40;15.10;;;;;;5084679;28;20028;-58
2023/04/26 06:12:03;;;;;;;4.05;1.75;;;17.90;15.70;;;;;;5087013;28;20020;-59
2023/04/26 06:14:29;;;;;;;5.72;1.63;;;17.90;16.10;;;;;;5065326;28;20040;-59
2023/04/26 06:16:55;;;;;;;4.47;1.52;;;18.00;15.70;;;;;;5086545;28;20020;-58
2023/04/26 06:19:20;;;;;;;4.38;1.67;;;18.00;12.70;;;;;;5065564;28;20037;-58
2023/04/26 06:21:47;;;;;;;4.57;1.52;;;18.40;13.30;;;;;;5086527;28;20047;-58
2023/04/26 06:24:13;;;;;;;3.00;1.23;;;19.00;12.90;;;;;;5064967;28;20032;-58
2023/04/26 06:26:38;;;;;;;4.45;1.63;;;19.80;10.40;;;;;;5085344;28;20017;-60
2023/04/26 06:29:04;;;;;;;4.82;1.38;;;19.70;12.40;;;;;;5086090;28;20063;-59
2023/04/26 06:31:30;;;;;;;5.82;1.70;;;20.10;8.60;;;;;;5088066;28;20036;-58
2023/04/26 06:33:55;;;;;;;7.38;1.73;;;20.10;10.40;;;;;;5066485;28;20102;-55
2023/04/26 06:36:21;;;;;;;4.47;2.08;;;20.40;8.30;;;;;;5086882;28;20036;-58
2023/04/26 06:38:46;;;;;;;2.80;1.10;;;21.00;9.50;;;;;;5077128;28;20028;-59
2023/04/26 06:41:12;;;;;;;3.97;1.30;;;21.70;8.60;;;;;;5088053;28;20135;-58
2023/04/26 06:43:37;;;;;;;4.65;1.50;;;22.40;5.40;;;;;;5075788;28;20030;-58
2023/04/26 06:46:03;;;;;;;3.03;1.20;;;22.50;6.50;;;;;;5087896;28;20028;-57
2023/04/26 06:48:28;;;;;;;2.95;1.30;;;22.10;6.70;;;;;;5077869;28;20067;-59
2023/04/26 06:50:55;;;;;;;4.85;1.10;;;22.60;6.50;;;;;;5071928;28;20058;-57
2023/04/26 06:53:20;;;;;;;2.17;1.27;;;22.30;6.00;;;;;;5082170;28;20032;-58
2023/04/26 06:55:46;;;;;;;4.90;1.60;;;22.20;6.10;;;;;;5071125;28;20037;-57
2023/04/26 06:58:11;;;;;;;3.40;1.42;;;22.00;6.00;;;;;;5083147;28;20100;-58
2023/04/26 07:00:37;;;;;;;3.90;1.10;;;21.60;6.00;;;;;;5071043;28;20082;-58
2023/04/26 07:03:02;;;;;;;6.30;2.08;;;21.00;6.10;;;;;;5084247;28;20047;-58
2023/04/26 07:05:28;;;;;;;5.20;1.85;;;20.10;4.50;;;;;;5073000;28;20054;-60
2023/04/26 07:07:53;;;;;;;5.60;1.63;;;20.00;6.30;;;;;;5072425;28;20024;-58
2023/04/26 07:10:20;;;;;;;5.43;1.50;;;20.30;4.50;;;;;;5091302;28;20023;-57
2023/04/26 07:12:45;;;;;;;3.88;1.33;;;21.00;5.70;;;;;;5088780;28;20392;-59
2023/04/26 07:15:11;;;;;;;5.75;1.48;;;21.80;5.00;;;;;;5090509;28;20032;-59
2023/04/26 07:17:37;;;;;;;2.95;1.42;;;21.00;3.50;;;;;;5070360;28;20040;-58
2023/04/26 07:20:03;;;;;;;4.03;1.50;;;20.40;5.50;;;;;;5090669;28;20031;-58
2023/04/26 07:22:28;;;;;;;4.72;1.30;;;20.70;4.50;;;;;;5071006;28;20032;-57
2023/04/26 07:24:54;;;;;;;4.90;1.80;;;21.50;3.80;;;;;;5086524;28;20032;-57
2023/04/26 07:27:19;;;;;;;2.83;1.88;;;21.60;4.00;;;;;;5070690;28;20480;-57
2023/04/26 07:29:45;;;;;;;3.28;1.45;;;21.70;4.40;;;;;;5088219;28;20051;-57
2023/04/26 07:32:11;;;;;;;5.47;1.35;;;21.90;3.90;;;;;;5090800;28;20032;-56
2023/04/26 07:34:37;;;;;;;3.88;1.50;;;22.80;3.10;;;;;;5068459;28;20046;-57
2023/04/26 07:37:03;;;;;;;5.00;1.40;;;23.50;2.30;;;;;;5084956;28;20025;-59
2023/04/26 07:39:28;;;;;;;3.47;1.40;;;23.90;1.50;;;;;;5085191;28;20030;-59
2023/04/26 07:41:54;;;;;;;4.10;1.63;;;24.40;1.00;;;;;;5071206;28;20094;-58
2023/04/26 07:44:19;;;;;;;3.83;1.45;;;24.70;1.00;;;;;;5088067;28;20093;-58
2023/04/26 07:46:45;;;;;;;7.43;1.70;;;25.10;1.00;;;;;;5090223;28;20560;-57
2023/04/26 07:49:10;;;;;;;5.88;1.50;;;24.80;1.00;;;;;;5068914;28;20047;-58
2023/04/26 07:51:36;;;;;;;5.35;1.58;;;23.70;1.00;;;;;;5089420;28;20527;-56
2023/04/26 07:54:02;;;;;;;5.15;1.48;;;22.60;1.00;;;;;;5068874;28;20085;-58
2023/04/26 07:56:27;;;;;;;5.68;1.70;;;21.80;1.50;;;;;;5089246;28;20039;-58
2023/04/26 07:58:52;;;;;;;3.60;1.52;;;21.30;1.10;;;;;;5068437;28;20111;-58
2023/04/26 08:01:18;;;;;;;4.32;1.60;;;21.70;1.00;;;;;;5089324;28;20043;-58
2023/04/26 08:03:44;;;;;;;3.58;1.45;;;22.10;1.00;;;;;;5078675;28;20024;-58
2023/04/26 08:06:09;;;;;;;3.65;1.45;;;22.00;1.00;;;;;;5066804;28;20036;-58
2023/04/26 08:08:41;;;;;;;1.73;1.08;;;21.30;1.00;;;;;;5087454;28;20103;-57
2023/04/26 08:11:08;;;;;;;3.53;1.25;;;20.90;1.70;;;;;;5049753;28;20416;-57
2023/04/26 08:13:34;;;;;;;5.65;1.58;;;20.90;1.00;;;;;;5086756;28;20522;-58
2023/04/26 08:15:59;;;;;;;5.15;1.20;;;20.80;1.00;;;;;;5070088;28;20072;-58
2023/04/26 08:18:24;;;;;;;4.95;1.33;;;20.30;1.40;;;;;;5087008;28;20085;-57
2023/04/26 08:20:50;;;;;;;4.80;1.27;;;19.50;2.00;;;;;;5089968;28;20038;-54
2023/04/26 08:23:15;;;;;;;4.60;1.25;;;18.90;2.50;;;;;;5074629;28;20393;-57
2023/04/26 08:25:41;;;;;;;4.88;1.40;;;18.50;3.20;;;;;;5089657;28;20016;-58
2023/04/26 08:28:07;;;;;;;5.13;1.23;;;18.20;2.70;;;;;;5072982;28;20132;-57
2023/04/26 08:30:33;;;;;;;4.22;1.20;;;17.70;3.30;;;;;;5089456;28;20099;-58
2023/04/26 08:32:58;;;;;;;5.57;1.40;;;17.50;3.90;;;;;;5071524;28;20107;-57
2023/04/26 08:35:24;;;;;;;4.90;1.40;;;17.60;3.80;;;;;;5089365;28;20059;-57
2023/04/26 08:37:50;;;;;;;4.82;1.50;;;17.50;4.10;;;;;;5070402;28;20987;-57
2023/04/26 08:40:21;;;;;;;2.13;1.10;;;17.80;4.40;;;;;;5089460;28;20080;-57
2023/04/26 08:42:47;;;;;;;4.47;1.52;;;17.90;4.10;;;;;;5051716;28;20108;-56
2023/04/26 08:45:14;;;;;;;1.73;1.00;;;17.70;3.80;;;;;;5089236;28;20108;-57
2023/04/26 08:47:47;;;;;;;4.47;1.40;;;17.60;4.10;;;;;;5068780;28;20031;-58
2023/04/26 08:50:15;;;;;;;4.50;1.30;;;17.60;4.00;;;;;;5089588;28;20024;-56
2023/04/26 08:52:42;;;;;;;4.03;1.35;;;17.00;3.80;;;;;;5068618;28;20379;-59
2023/04/26 08:55:09;;;;;;;3.20;1.02;;;17.00;4.10;;;;;;5089417;28;20028;-57
2023/04/26 08:57:35;;;;;;;5.38;1.15;;;17.10;4.50;;;;;;5067764;28;20039;-55
2023/04/26 09:00:05;;;;;;;6.10;1.20;;;16.90;4.00;;;;;;5089177;28;20212;-56
2023/04/26 09:02:31;;;;;;;3.88;1.00;;;16.50;4.30;;;;;;5068259;28;20025;-58
2023/04/26 09:04:56;;;;;;;2.38;0.90;;;16.50;4.40;;;;;;5066503;28;20031;-58
2023/04/26 09:07:30;;;;;;;2.00;0.75;;;16.80;5.00;;;;;;5088974;28;20146;-57
2023/04/26 09:09:57;;;;;;;3.67;1.20;;;17.00;5.10;;;;;;5088620;28;20081;-58
2023/04/26 09:12:23;;;;;;;5.35;1.35;;;17.30;5.10;;;;;;5088847;28;20028;-56
2023/04/26 09:14:49;;;;;;;3.53;1.17;;;17.20;4.80;;;;;;5067049;28;20097;-58
2023/04/26 09:17:37;;;;;;;3.67;1.08;;;17.00;4.60;;;;;;5088262;28;20032;-58
2023/04/26 09:20:17;;;;;;;6.25;1.92;;;16.50;3.70;;;;;;5088737;28;20039;-59
2023/04/26 09:22:44;;;;;;;3.67;1.00;;;16.10;4.40;;;;;;5049985;28;20079;-58
2023/04/26 09:25:12;;;;;;;5.45;1.35;;;15.70;5.20;;;;;;5088707;28;20549;-57
2023/04/26 09:27:42;;;;;;;5.43;1.52;;;15.60;6.50;;;;;;5067598;28;20119;-58
2023/04/26 09:30:27;;;;;;;3.60;1.13;;;15.30;6.80;;;;;;5088706;28;20032;-57
2023/04/26 09:33:05;;;;;;;2.25;1.02;;;15.30;7.80;;;;;;5052761;28;20111;-59
2023/04/26 09:35:41;;;;;;;5.78;1.38;;;15.40;7.10;;;;;;5088416;28;20044;-58
2023/04/26 09:38:14;;;;;;;3.40;1.42;;;15.20;7.10;;;;;;5056344;28;20039;-58
2023/04/26 09:40:42;;;;;;;4.63;0.85;;;14.80;8.30;;;;;;5088582;28;20034;-58
2023/04/26 09:43:16;;;;;;;2.88;1.10;;;14.50;9.20;;;;;;5071694;28;20023;-59
2023/04/26 09:45:51;;;;;;;3.70;0.80;;;14.40;9.40;;;;;;5088318;28;20074;-58
2023/04/26 09:48:33;;;;;;;4.35;0.90;;;14.30;9.40;;;;;;5059254;28;20388;-59
2023/04/26 09:51:10;;;;;;;3.47;0.90;;;14.40;9.40;;;;;;5088436;28;20043;-59
2023/04/26 09:53:37;;;;;;;2.50;1.00;;;14.70;10.10;;;;;;5064570;28;20514;-59
2023/04/26 09:56:17;;;;;;;2.45;0.90;;;15.00;9.40;;;;;;5068484;28;20051;-57
2023/04/26 09:58:43;;;;;;;1.38;0.77;;;15.50;9.10;;;;;;5066216;28;20028;-59
2023/04/26 10:01:10;;;;;;;2.78;1.30;;;15.80;8.60;;;;;;5068607;28;20034;-59
2023/04/26 10:03:36;;;;;;;2.15;1.38;;;16.00;8.50;;;;;;5085824;28;20024;-59
2023/04/26 10:06:02;;;;;;;3.42;1.20;;;16.10;7.40;;;;;;5064781;28;20126;-59
2023/04/26 10:08:30;;;;;;;2.10;0.85;;;16.20;7.00;;;;;;5085515;28;20043;-58
2023/04/26 10:10:55;;;;;;;4.30;1.38;;;16.20;6.70;;;;;;5068296;28;20086;-58
2023/04/26 10:13:21;;;;;;;2.92;1.08;;;16.10;5.80;;;;;;5085431;28;20028;-58
2023/04/26 10:15:47;;;;;;;1.90;1.00;;;16.00;5.90;;;;;;5087933;28;20063;-58
2023/04/26 10:18:13;;;;;;;2.22;1.17;;;15.70;5.40;;;;;;5072565;28;20035;-56
2023/04/26 10:20:42;;;;;;;5.60;1.40;;;15.50;5.60;;;;;;5088193;28;20017;-56
2023/04/26 10:23:19;;;;;;;3.53;1.40;;;14.90;5.70;;;;;;5074412;28;20063;-56
2023/04/26 10:25:45;;;;;;;2.72;1.00;;;14.50;6.30;;;;;;5092098;28;20095;-56
2023/04/26 10:28:10;;;;;;;2.20;1.20;;;14.20;6.70;;;;;;5075700;28;20452;-54
2023/04/26 10:30:56;;;;;;;3.85;1.40;;;13.90;7.10;;;;;;5091834;28;20021;-56
2023/04/26 10:33:23;;;;;;;3.40;1.35;;;13.80;7.70;;;;;;5077096;28;20043;-56
2023/04/26 10:36:16;;;;;;;3.40;1.40;;;13.50;7.90;;;;;;5091617;28;20032;-56
2023/04/26 10:39:17;;;;;;;3.28;1.25;;;13.40;9.20;;;;;;5069221;28;20377;-56
2023/04/26 10:41:42;;;;;;;2.70;1.15;;;13.30;9.60;;;;;;5051413;28;20512;-56
2023/04/26 10:44:37;;;;;;;2.38;0.90;;;13.30;8.50;;;;;;5088294;28;20032;-57
2023/04/26 10:47:05;;;;;;;3.28;1.25;;;13.60;9.10;;;;;;5091462;28;20043;-56
2023/04/26 10:49:46;;;;;;;3.42;1.63;;;13.60;8.60;;;;;;5069703;28;20121;-57
2023/04/26 10:52:14;;;;;;;4.70;1.20;;;13.50;9.00;;;;;;5051231;28;20305;-56
2023/04/26 10:54:54;;;;;;;3.92;1.52;;;13.40;9.20;;;;;;5088930;28;20039;-57
2023/04/26 10:57:21;;;;;;;3.92;1.35;;;13.30;10.30;;;;;;5051315;28;20055;-56
2023/04/26 11:00:15;;;;;;;5.32;1.05;;;13.10;9.80;;;;;;5088585;28;20028;-55
2023/04/26 11:02:47;;;;;;;1.15;0.70;;;13.20;10.40;;;;;;5051924;28;20041;-56
2023/04/26 11:05:38;;;;;;;4.57;1.48;;;13.30;9.10;;;;;;5079845;28;20118;-55
2023/04/26 11:08:04;;;;;;;6.57;1.50;;;13.40;8.80;;;;;;5088787;28;20023;-56
2023/04/26 11:10:29;;;;;;;4.78;1.30;;;13.30;8.50;;;;;;5091121;28;20102;-54
2023/04/26 11:13:00;;;;;;;2.88;1.23;;;13.30;8.50;;;;;;5072853;28;20099;-55
2023/04/26 11:15:25;;;;;;;1.63;0.73;;;13.30;8.70;;;;;;5091094;28;20056;-56
2023/04/26 11:17:51;;;;;;;1.38;0.65;;;13.30;8.60;;;;;;5072216;28;20145;-56
2023/04/26 11:20:16;;;;;;;2.65;1.17;;;13.30;8.60;;;;;;5090882;28;20108;-56
2023/04/26 11:22:42;;;;;;;3.95;1.27;;;13.40;8.60;;;;;;5070800;28;20040;-55
2023/04/26 11:25:08;;;;;;;2.90;1.10;;;13.40;8.50;;;;;;5090803;28;20092;-55
2023/04/26 11:27:34;;;;;;;3.90;1.30;;;13.40;7.90;;;;;;5069390;28;20028;-55
2023/04/26 11:30:03;;;;;;;6.63;1.20;;;13.50;7.90;;;;;;5090897;28;20103;-55
2023/04/26 11:32:28;;;;;;;6.63;1.25;;;13.60;7.40;;;;;;5069958;28;20492;-56
2023/04/26 11:34:54;;;;;;;2.45;1.30;;;13.60;7.50;;;;;;5088350;28;20044;-53
2023/04/26 11:37:19;;;;;;;1.48;0.95;;;13.50;7.60;;;;;;5070911;28;20052;-55
2023/04/26 11:39:45;;;;;;;2.90;1.23;;;13.40;8.20;;;;;;5087886;28;20024;-55
2023/04/26 11:42:11;;;;;;;4.20;1.42;;;13.40;8.00;;;;;;5090356;28;20032;-56
2023/04/26 11:44:38;;;;;;;5.55;1.52;;;13.30;8.10;;;;;;5068755;28;20040;-55
2023/04/26 11:47:05;;;;;;;3.65;1.45;;;13.30;8.20;;;;;;5089908;28;20028;-54
2023/04/26 11:49:35;;;;;;;6.40;1.60;;;13.40;8.50;;;;;;5068736;28;20039;-56
2023/04/26 11:52:01;;;;;;;6.13;1.08;;;13.40;8.70;;;;;;5090044;28;20036;-56
2023/04/26 11:54:32;;;;;;;5.00;2.10;;;13.40;8.60;;;;;;5068438;28;20074;-54
2023/04/26 11:56:58;;;;;;;5.07;1.70;;;13.40;8.40;;;;;;5050222;28;20037;-56
2023/04/26 11:59:28;;;;;;;5.93;1.60;;;13.40;8.70;;;;;;5086955;28;20039;-55
2023/04/26 12:01:57;;;;;;;3.80;1.60;;;13.40;8.50;;;;;;5088833;28;20032;-54
2023/04/26 12:04:28;;;;;;;2.35;1.33;;;13.50;8.20;;;;;;5067956;28;20059;-53
2023/04/26 12:06:54;;;;;;;5.53;1.70;;;13.60;8.10;;;;;;5083072;28;20498;-55
2023/04/26 12:09:40;;;;;;;2.83;1.63;;;13.50;7.50;;;;;;5068513;28;20111;-55
2023/04/26 12:12:06;;;;;;;6.25;1.60;;;13.30;7.70;;;;;;5049793;28;20104;-55
2023/04/26 12:14:33;;;;;;;5.32;1.38;;;13.20;8.10;;;;;;5086444;28;20107;-55
2023/04/26 12:17:03;;;;;;;4.13;1.33;;;13.00;8.20;;;;;;5089676;28;20049;-53
2023/04/26 12:19:39;;;;;;;3.50;1.50;;;12.90;8.60;;;;;;5068226;28;20036;-54
2023/04/26 12:22:06;;;;;;;4.22;1.52;;;12.70;9.30;;;;;;5089218;28;20035;-55
2023/04/26 12:24:34;;;;;;;4.68;2.03;;;12.60;9.10;;;;;;5067903;28;20063;-56
2023/04/26 12:27:01;;;;;;;4.75;1.90;;;12.70;9.00;;;;;;5089339;28;20024;-53
2023/04/26 12:29:29;;;;;;;4.15;1.60;;;12.80;9.10;;;;;;5067770;28;20089;-52
2023/04/26 12:31:55;;;;;;;4.25;1.83;;;12.80;9.00;;;;;;5088945;28;20520;-56
2023/04/26 12:34:21;;;;;;;4.57;1.40;;;13.00;9.10;;;;;;5067571;28;20054;-56
2023/04/26 12:36:46;;;;;;;3.70;1.83;;;13.20;9.10;;;;;;5088696;28;20513;-54
2023/04/26 12:39:13;;;;;;;5.38;1.60;;;13.30;8.80;;;;;;5068010;28;20032;-50
2023/04/26 12:41:39;;;;;;;4.85;2.00;;;13.40;8.60;;;;;;5088702;28;20036;-54
2023/04/26 12:44:06;;;;;;;5.78;1.80;;;13.30;8.40;;;;;;5067163;28;20119;-57
2023/04/26 12:46:32;;;;;;;6.22;2.00;;;13.30;8.30;;;;;;5088672;28;20115;-57
2023/04/26 12:48:57;;;;;;;3.20;1.80;;;13.20;8.20;;;;;;5067983;28;20111;-56
2023/04/26 12:51:23;;;;;;;2.85;1.15;;;13.20;8.10;;;;;;5088524;28;20475;-54
2023/04/26 12:53:49;;;;;;;5.45;1.70;;;13.30;8.20;;;;;;5078427;28;20413;-53
2023/04/26 12:56:15;;;;;;;5.03;1.73;;;13.40;8.00;;;;;;5065736;28;20033;-56